International Falls, Minnesota
Current Conditions -  °F | °C
As of 5:55 AM on Friday 28 Nov 2014 (Local Time) from KINL Reporting Station
Overcast Overcast  
Wind Chill: -4°   Ceiling: 7000
Heat Index:   Visibility: 10mi
Dew Point: -2°   Wind: 5mph
Humidity: 73%   Direction: 80°E
Pressure: 30.05"   Gusts: NA
Location:  48.6°N, 93.4°W
Report Text: KINL 281155Z AUTO 08004KT 10SM OVC070 M15/M19 A3005 RMK AO2 SLP210 T11501189 11150 21172 56023 $
Loading
Personal Weather Stations






























Interactive Weather Map New forecast layout! Learn more

10-Day Weather Forecast

Advertisements
Track Severe Weather on mobile